Jump to content


COMPASS FLIGHT CP5849 FLOWN ON 01-27-2018 BY CAPTAIN DEREK ROGY

Pilot StatsCaptain Derek Rogy (LDP86) • 1,528.3 total hours • 819 total flights [View Logbook]
FLIGHT DETAILS
StatusReceived and approved on 2018-01-27 at 19:01:53
Origin AirportCalgary Intl (CYYC) • Calgary, Alberta, Canada (3,556 feet MSL)
Filed Flight PlanFLIGHT PLANNER OFFLINE
Destination AirportSalt Lake City Intl (KSLC) • Salt Lake City, Utah, United States (4,226 feet MSL)
Alternate AirportNone Filed
AirlineCompass
AircraftEmbraer E-175 (E75 / E175)
FS Aircraft UsedEmbraer 175 Delta Connection
Cruising AltitudeFL310
Distance Flown626 nautical miles
Passengers Onboard78 passengers (92.86% full)
DEPARTURE DETAILS
Time Out14:13:48
Taxi Data74,592 lbs total with 11,213 lbs of fuel onboard
Takeoff Data14:27:54 (14 minutes after leaving gate/ramp) • 74,233 lbs total • 5° pitch at 162 knots
Departure METARCYYC 272200Z 14009KT 3/4SM R17R/4000VP6000FT/D R29/6000FT/D R17L/P6000FT/D -SN VV008 M15/M17 A3003 RMK SN8 SLP262
ARRIVAL DETAILS
Landing Data15:52:41 • 68,874 lbs total • 4° pitch doing 135 knots at a rate of -63.05 feet/minute with 5,320 lbs of fuel onboard
Time In15:58:48 (6 minutes after landing)
Ramp Weight68,699 lbs total
Total Fuel Used5,893 lbs
Total Block Time01:45:00 (1.8 hours) while 20 minutes were spent on the ground
Arrival METARKSLC 272354Z 35004KT 10SM BKN060 BKN100 07/M06 A3037 RMK AO2 SLP290 ACSL DSMT NW T00671056 10078 20039 52008
MISCELLANEOUS DETAILS
LiveDISPATCH Version4.8.3.1
FS Version
FSUIPC Version5.12
OS VersionWindows 7 32-bit
Screen Resolution1920 x 1200
Pilot's CommentsNo Comments Reported
FLIGHT MAP